sensor_id;sensor_type;location;lat;lon;timestamp;P1;durP1;ratioP1;P2;durP2;ratioP2
11877;SDS011;5998;42.676;23.268;2023-04-03T00:02:01;2.43;;;2.17;;
11877;SDS011;5998;42.676;23.268;2023-04-03T00:04:27;3.17;;;2.40;;
11877;SDS011;5998;42.676;23.268;2023-04-03T00:06:55;4.13;;;2.50;;
11877;SDS011;5998;42.676;23.268;2023-04-03T00:09:23;2.90;;;2.57;;
11877;SDS011;5998;42.676;23.268;2023-04-03T00:11:50;2.23;;;2.03;;
11877;SDS011;5998;42.676;23.268;2023-04-03T00:14:16;2.73;;;2.40;;
11877;SDS011;5998;42.676;23.268;2023-04-03T00:16:44;3.27;;;2.20;;
11877;SDS011;5998;42.676;23.268;2023-04-03T00:19:11;2.80;;;2.10;;
11877;SDS011;5998;42.676;23.268;2023-04-03T00:21:38;2.43;;;1.90;;
11877;SDS011;5998;42.676;23.268;2023-04-03T00:24:05;3.07;;;2.30;;
11877;SDS011;5998;42.676;23.268;2023-04-03T00:26:32;5.97;;;2.00;;
11877;SDS011;5998;42.676;23.268;2023-04-03T00:28:59;3.57;;;2.17;;
11877;SDS011;5998;42.676;23.268;2023-04-03T00:31:25;3.70;;;1.90;;
11877;SDS011;5998;42.676;23.268;2023-04-03T00:33:53;3.90;;;2.20;;
11877;SDS011;5998;42.676;23.268;2023-04-03T00:36:20;3.20;;;2.07;;
11877;SDS011;5998;42.676;23.268;2023-04-03T00:38:47;2.43;;;2.23;;
11877;SDS011;5998;42.676;23.268;2023-04-03T00:41:13;2.67;;;1.80;;
11877;SDS011;5998;42.676;23.268;2023-04-03T00:43:40;2.37;;;1.73;;
11877;SDS011;5998;42.676;23.268;2023-04-03T00:46:07;2.73;;;1.87;;
11877;SDS011;5998;42.676;23.268;2023-04-03T00:48:34;4.10;;;2.13;;
11877;SDS011;5998;42.676;23.268;2023-04-03T00:51:07;2.93;;;1.73;;
11877;SDS011;5998;42.676;23.268;2023-04-03T00:53:39;1.93;;;1.60;;
11877;SDS011;5998;42.676;23.268;2023-04-03T00:56:10;6.63;;;2.13;;
11877;SDS011;5998;42.676;23.268;2023-04-03T00:58:41;2.63;;;1.60;;
11877;SDS011;5998;42.676;23.268;2023-04-03T01:01:11;2.43;;;1.93;;
11877;SDS011;5998;42.676;23.268;2023-04-03T01:03:42;1.90;;;1.70;;
11877;SDS011;5998;42.676;23.268;2023-04-03T01:06:18;2.00;;;1.73;;
11877;SDS011;5998;42.676;23.268;2023-04-03T01:08:49;2.13;;;1.73;;
11877;SDS011;5998;42.676;23.268;2023-04-03T01:11:16;2.77;;;1.67;;
11877;SDS011;5998;42.676;23.268;2023-04-03T01:13:43;2.20;;;2.00;;
11877;SDS011;5998;42.676;23.268;2023-04-03T01:16:10;2.90;;;2.03;;
11877;SDS011;5998;42.676;23.268;2023-04-03T01:18:37;2.93;;;2.00;;
11877;SDS011;5998;42.676;23.268;2023-04-03T01:21:18;2.00;;;1.80;;
11877;SDS011;5998;42.676;23.268;2023-04-03T01:24:07;4.03;;;2.23;;
11877;SDS011;5998;42.676;23.268;2023-04-03T01:26:44;2.40;;;2.20;;
11877;SDS011;5998;42.676;23.268;2023-04-03T01:29:11;4.33;;;2.40;;
11877;SDS011;5998;42.676;23.268;2023-04-03T01:31:45;8.83;;;2.50;;
11877;SDS011;5998;42.676;23.268;2023-04-03T01:34:13;7.53;;;2.20;;
11877;SDS011;5998;42.676;23.268;2023-04-03T01:36:40;2.67;;;2.23;;
11877;SDS011;5998;42.676;23.268;2023-04-03T01:39:07;5.23;;;2.23;;
11877;SDS011;5998;42.676;23.268;2023-04-03T01:41:34;4.53;;;2.13;;
11877;SDS011;5998;42.676;23.268;2023-04-03T01:44:01;3.23;;;2.17;;
11877;SDS011;5998;42.676;23.268;2023-04-03T01:46:29;2.23;;;1.87;;
11877;SDS011;5998;42.676;23.268;2023-04-03T01:48:57;6.40;;;2.80;;
11877;SDS011;5998;42.676;23.268;2023-04-03T01:51:24;6.00;;;2.23;;
11877;SDS011;5998;42.676;23.268;2023-04-03T01:53:51;5.73;;;2.47;;
11877;SDS011;5998;42.676;23.268;2023-04-03T01:56:17;4.10;;;2.87;;
11877;SDS011;5998;42.676;23.268;2023-04-03T01:58:45;5.47;;;3.20;;
11877;SDS011;5998;42.676;23.268;2023-04-03T02:01:11;6.53;;;3.23;;
11877;SDS011;5998;42.676;23.268;2023-04-03T02:03:38;4.87;;;3.10;;
11877;SDS011;5998;42.676;23.268;2023-04-03T02:06:06;3.57;;;2.50;;
11877;SDS011;5998;42.676;23.268;2023-04-03T02:08:33;2.83;;;2.57;;
11877;SDS011;5998;42.676;23.268;2023-04-03T02:11:00;4.57;;;2.50;;
11877;SDS011;5998;42.676;23.268;2023-04-03T02:13:26;5.63;;;2.77;;
11877;SDS011;5998;42.676;23.268;2023-04-03T02:15:53;116.17;;;8.33;;
11877;SDS011;5998;42.676;23.268;2023-04-03T02:18:20;7.23;;;3.23;;
11877;SDS011;5998;42.676;23.268;2023-04-03T02:20:46;6.37;;;3.57;;
11877;SDS011;5998;42.676;23.268;2023-04-03T02:23:14;7.97;;;3.80;;
11877;SDS011;5998;42.676;23.268;2023-04-03T02:25:41;8.20;;;3.60;;
11877;SDS011;5998;42.676;23.268;2023-04-03T02:28:08;6.23;;;3.40;;
11877;SDS011;5998;42.676;23.268;2023-04-03T02:30:35;5.43;;;3.50;;
11877;SDS011;5998;42.676;23.268;2023-04-03T02:33:01;5.57;;;3.43;;
11877;SDS011;5998;42.676;23.268;2023-04-03T02:35:28;18.23;;;4.67;;
11877;SDS011;5998;42.676;23.268;2023-04-03T02:37:55;16.50;;;5.10;;
11877;SDS011;5998;42.676;23.268;2023-04-03T02:40:23;15.27;;;4.73;;
11877;SDS011;5998;42.676;23.268;2023-04-03T02:42:49;11.30;;;5.30;;
11877;SDS011;5998;42.676;23.268;2023-04-03T02:45:16;6.27;;;4.57;;
11877;SDS011;5998;42.676;23.268;2023-04-03T02:47:43;7.70;;;4.50;;
11877;SDS011;5998;42.676;23.268;2023-04-03T02:50:10;10.80;;;4.37;;
11877;SDS011;5998;42.676;23.268;2023-04-03T02:52:36;5.80;;;3.70;;
11877;SDS011;5998;42.676;23.268;2023-04-03T02:55:03;5.03;;;3.80;;
11877;SDS011;5998;42.676;23.268;2023-04-03T02:57:32;8.10;;;3.63;;
11877;SDS011;5998;42.676;23.268;2023-04-03T02:59:59;7.47;;;5.00;;
11877;SDS011;5998;42.676;23.268;2023-04-03T03:02:25;5.77;;;4.10;;
11877;SDS011;5998;42.676;23.268;2023-04-03T03:04:52;3.33;;;3.03;;
11877;SDS011;5998;42.676;23.268;2023-04-03T03:07:19;7.60;;;4.23;;
11877;SDS011;5998;42.676;23.268;2023-04-03T03:09:48;6.97;;;3.37;;
11877;SDS011;5998;42.676;23.268;2023-04-03T03:12:14;7.20;;;4.03;;
11877;SDS011;5998;42.676;23.268;2023-04-03T03:14:47;18.60;;;5.80;;
11877;SDS011;5998;42.676;23.268;2023-04-03T03:17:14;12.77;;;5.17;;
11877;SDS011;5998;42.676;23.268;2023-04-03T03:19:41;11.37;;;3.93;;
11877;SDS011;5998;42.676;23.268;2023-04-03T03:22:08;11.90;;;4.93;;
11877;SDS011;5998;42.676;23.268;2023-04-03T03:24:34;13.17;;;5.07;;
11877;SDS011;5998;42.676;23.268;2023-04-03T03:27:01;12.87;;;4.50;;
11877;SDS011;5998;42.676;23.268;2023-04-03T03:29:28;12.70;;;4.67;;
11877;SDS011;5998;42.676;23.268;2023-04-03T03:31:56;12.30;;;4.47;;
11877;SDS011;5998;42.676;23.268;2023-04-03T03:34:23;10.47;;;4.67;;
11877;SDS011;5998;42.676;23.268;2023-04-03T03:36:49;5.70;;;4.20;;
11877;SDS011;5998;42.676;23.268;2023-04-03T03:39:16;15.03;;;4.90;;
11877;SDS011;5998;42.676;23.268;2023-04-03T03:41:43;9.57;;;4.60;;
11877;SDS011;5998;42.676;23.268;2023-04-03T03:44:09;7.93;;;4.77;;
11877;SDS011;5998;42.676;23.268;2023-04-03T03:46:36;9.40;;;4.13;;
11877;SDS011;5998;42.676;23.268;2023-04-03T03:49:04;9.43;;;4.83;;
11877;SDS011;5998;42.676;23.268;2023-04-03T03:51:31;15.10;;;7.80;;
11877;SDS011;5998;42.676;23.268;2023-04-03T03:53:57;25.80;;;11.47;;
11877;SDS011;5998;42.676;23.268;2023-04-03T03:56:24;13.93;;;6.73;;
11877;SDS011;5998;42.676;23.268;2023-04-03T03:58:51;19.20;;;7.10;;
11877;SDS011;5998;42.676;23.268;2023-04-03T04:01:18;14.87;;;6.10;;
11877;SDS011;5998;42.676;23.268;2023-04-03T04:03:45;27.40;;;5.83;;
11877;SDS011;5998;42.676;23.268;2023-04-03T04:06:13;13.03;;;5.63;;
11877;SDS011;5998;42.676;23.268;2023-04-03T04:08:40;12.67;;;4.47;;
11877;SDS011;5998;42.676;23.268;2023-04-03T04:11:07;9.70;;;5.50;;
11877;SDS011;5998;42.676;23.268;2023-04-03T04:13:34;8.23;;;4.93;;
11877;SDS011;5998;42.676;23.268;2023-04-03T04:16:00;12.80;;;6.27;;
11877;SDS011;5998;42.676;23.268;2023-04-03T04:18:27;14.77;;;4.83;;
11877;SDS011;5998;42.676;23.268;2023-04-03T04:20:54;13.07;;;6.73;;
11877;SDS011;5998;42.676;23.268;2023-04-03T04:23:22;8.33;;;5.57;;
11877;SDS011;5998;42.676;23.268;2023-04-03T04:25:49;10.17;;;5.33;;
11877;SDS011;5998;42.676;23.268;2023-04-03T04:28:17;6.03;;;4.53;;
11877;SDS011;5998;42.676;23.268;2023-04-03T04:30:44;10.90;;;4.70;;
11877;SDS011;5998;42.676;23.268;2023-04-03T04:33:11;17.87;;;5.73;;
11877;SDS011;5998;42.676;23.268;2023-04-03T04:35:39;12.40;;;6.03;;
11877;SDS011;5998;42.676;23.268;2023-04-03T04:38:07;9.13;;;4.97;;
11877;SDS011;5998;42.676;23.268;2023-04-03T04:40:36;10.00;;;5.57;;
11877;SDS011;5998;42.676;23.268;2023-04-03T04:43:03;12.40;;;5.50;;
11877;SDS011;5998;42.676;23.268;2023-04-03T04:45:30;31.53;;;15.10;;
11877;SDS011;5998;42.676;23.268;2023-04-03T04:47:56;37.37;;;18.90;;
11877;SDS011;5998;42.676;23.268;2023-04-03T04:50:23;45.00;;;20.60;;
11877;SDS011;5998;42.676;23.268;2023-04-03T04:52:50;38.73;;;17.40;;
11877;SDS011;5998;42.676;23.268;2023-04-03T04:55:16;14.63;;;7.47;;
11877;SDS011;5998;42.676;23.268;2023-04-03T04:57:44;14.47;;;8.00;;
11877;SDS011;5998;42.676;23.268;2023-04-03T05:00:12;12.67;;;8.63;;
11877;SDS011;5998;42.676;23.268;2023-04-03T05:02:39;17.17;;;8.90;;
11877;SDS011;5998;42.676;23.268;2023-04-03T05:05:07;25.93;;;10.67;;
11877;SDS011;5998;42.676;23.268;2023-04-03T05:07:34;25.90;;;11.43;;
11877;SDS011;5998;42.676;23.268;2023-04-03T05:10:01;26.23;;;11.80;;
11877;SDS011;5998;42.676;23.268;2023-04-03T05:12:28;25.63;;;12.10;;
11877;SDS011;5998;42.676;23.268;2023-04-03T05:14:56;20.77;;;10.80;;
11877;SDS011;5998;42.676;23.268;2023-04-03T05:17:23;13.53;;;9.37;;
11877;SDS011;5998;42.676;23.268;2023-04-03T05:19:50;10.93;;;8.17;;
11877;SDS011;5998;42.676;23.268;2023-04-03T05:22:16;19.00;;;7.63;;
11877;SDS011;5998;42.676;23.268;2023-04-03T05:24:43;29.50;;;13.60;;
11877;SDS011;5998;42.676;23.268;2023-04-03T05:27:10;29.73;;;14.47;;
11877;SDS011;5998;42.676;23.268;2023-04-03T05:29:36;32.27;;;14.97;;
11877;SDS011;5998;42.676;23.268;2023-04-03T05:32:05;31.77;;;17.67;;
11877;SDS011;5998;42.676;23.268;2023-04-03T05:34:31;38.10;;;18.33;;
11877;SDS011;5998;42.676;23.268;2023-04-03T05:36:58;34.63;;;16.97;;
11877;SDS011;5998;42.676;23.268;2023-04-03T05:39:25;33.13;;;17.17;;
11877;SDS011;5998;42.676;23.268;2023-04-03T05:41:51;29.17;;;16.03;;
11877;SDS011;5998;42.676;23.268;2023-04-03T05:44:18;29.97;;;16.20;;
11877;SDS011;5998;42.676;23.268;2023-04-03T05:46:45;27.87;;;15.23;;
11877;SDS011;5998;42.676;23.268;2023-04-03T05:49:13;22.37;;;12.80;;
11877;SDS011;5998;42.676;23.268;2023-04-03T05:51:39;21.50;;;14.20;;
11877;SDS011;5998;42.676;23.268;2023-04-03T05:54:08;19.13;;;14.77;;
11877;SDS011;5998;42.676;23.268;2023-04-03T05:56:38;29.50;;;15.43;;
11877;SDS011;5998;42.676;23.268;2023-04-03T05:59:05;20.57;;;15.00;;
11877;SDS011;5998;42.676;23.268;2023-04-03T06:01:32;16.30;;;11.57;;
11877;SDS011;5998;42.676;23.268;2023-04-03T06:03:59;13.00;;;8.03;;
11877;SDS011;5998;42.676;23.268;2023-04-03T06:06:27;13.23;;;7.60;;
11877;SDS011;5998;42.676;23.268;2023-04-03T06:09:09;12.23;;;8.07;;
11877;SDS011;5998;42.676;23.268;2023-04-03T06:11:36;12.20;;;8.10;;
11877;SDS011;5998;42.676;23.268;2023-04-03T06:14:04;11.70;;;8.37;;
11877;SDS011;5998;42.676;23.268;2023-04-03T06:16:30;9.57;;;7.20;;
11877;SDS011;5998;42.676;23.268;2023-04-03T06:18:57;11.07;;;7.60;;
11877;SDS011;5998;42.676;23.268;2023-04-03T06:21:24;7.27;;;6.20;;
11877;SDS011;5998;42.676;23.268;2023-04-03T06:23:52;5.90;;;4.30;;
11877;SDS011;5998;42.676;23.268;2023-04-03T06:26:19;5.87;;;4.07;;
11877;SDS011;5998;42.676;23.268;2023-04-03T06:28:46;8.83;;;4.77;;
11877;SDS011;5998;42.676;23.268;2023-04-03T06:31:12;8.40;;;5.17;;
11877;SDS011;5998;42.676;23.268;2023-04-03T06:33:39;7.63;;;4.20;;
11877;SDS011;5998;42.676;23.268;2023-04-03T06:36:06;8.37;;;3.30;;
11877;SDS011;5998;42.676;23.268;2023-04-03T06:38:34;5.50;;;3.73;;
11877;SDS011;5998;42.676;23.268;2023-04-03T06:41:03;5.47;;;3.90;;
11877;SDS011;5998;42.676;23.268;2023-04-03T06:43:30;5.20;;;4.00;;
11877;SDS011;5998;42.676;23.268;2023-04-03T06:45:57;9.50;;;4.80;;
11877;SDS011;5998;42.676;23.268;2023-04-03T06:48:24;10.23;;;5.03;;
11877;SDS011;5998;42.676;23.268;2023-04-03T06:50:50;7.13;;;3.90;;
11877;SDS011;5998;42.676;23.268;2023-04-03T06:53:17;6.60;;;4.00;;
11877;SDS011;5998;42.676;23.268;2023-04-03T06:55:44;5.23;;;3.60;;
11877;SDS011;5998;42.676;23.268;2023-04-03T06:58:13;7.70;;;3.60;;
11877;SDS011;5998;42.676;23.268;2023-04-03T07:00:42;6.00;;;3.80;;
11877;SDS011;5998;42.676;23.268;2023-04-03T07:03:08;9.07;;;4.23;;
11877;SDS011;5998;42.676;23.268;2023-04-03T07:05:35;5.97;;;4.10;;
11877;SDS011;5998;42.676;23.268;2023-04-03T07:08:02;5.67;;;3.43;;
11877;SDS011;5998;42.676;23.268;2023-04-03T07:10:29;6.83;;;3.70;;
11877;SDS011;5998;42.676;23.268;2023-04-03T07:12:56;3.80;;;3.30;;
11877;SDS011;5998;42.676;23.268;2023-04-03T07:15:24;6.47;;;3.87;;
11877;SDS011;5998;42.676;23.268;2023-04-03T07:17:51;8.53;;;4.23;;
11877;SDS011;5998;42.676;23.268;2023-04-03T07:20:18;5.77;;;3.37;;
11877;SDS011;5998;42.676;23.268;2023-04-03T07:22:44;4.93;;;3.50;;
11877;SDS011;5998;42.676;23.268;2023-04-03T07:25:11;5.13;;;3.57;;
11877;SDS011;5998;42.676;23.268;2023-04-03T07:27:38;6.13;;;3.80;;
11877;SDS011;5998;42.676;23.268;2023-04-03T07:30:05;3.40;;;3.07;;
11877;SDS011;5998;42.676;23.268;2023-04-03T07:32:34;6.83;;;3.67;;
11877;SDS011;5998;42.676;23.268;2023-04-03T07:35:01;5.93;;;3.70;;
11877;SDS011;5998;42.676;23.268;2023-04-03T07:37:29;11.10;;;4.17;;
11877;SDS011;5998;42.676;23.268;2023-04-03T07:39:55;7.83;;;3.50;;
11877;SDS011;5998;42.676;23.268;2023-04-03T07:42:24;6.03;;;3.97;;
11877;SDS011;5998;42.676;23.268;2023-04-03T07:44:51;4.03;;;3.23;;
11877;SDS011;5998;42.676;23.268;2023-04-03T07:47:18;6.63;;;3.23;;
11877;SDS011;5998;42.676;23.268;2023-04-03T07:49:47;6.63;;;3.30;;
11877;SDS011;5998;42.676;23.268;2023-04-03T07:52:14;4.47;;;2.67;;
11877;SDS011;5998;42.676;23.268;2023-04-03T07:54:41;5.40;;;3.03;;
11877;SDS011;5998;42.676;23.268;2023-04-03T07:57:08;3.43;;;3.07;;
11877;SDS011;5998;42.676;23.268;2023-04-03T07:59:35;4.90;;;2.77;;
11877;SDS011;5998;42.676;23.268;2023-04-03T08:02:02;9.80;;;4.60;;
11877;SDS011;5998;42.676;23.268;2023-04-03T08:04:30;7.77;;;4.70;;
11877;SDS011;5998;42.676;23.268;2023-04-03T08:06:58;5.40;;;4.40;;
11877;SDS011;5998;42.676;23.268;2023-04-03T08:09:24;10.83;;;7.17;;
11877;SDS011;5998;42.676;23.268;2023-04-03T08:11:51;7.70;;;6.10;;
11877;SDS011;5998;42.676;23.268;2023-04-03T08:14:18;8.27;;;6.37;;
11877;SDS011;5998;42.676;23.268;2023-04-03T08:16:46;11.20;;;6.80;;
11877;SDS011;5998;42.676;23.268;2023-04-03T08:19:14;8.23;;;6.33;;
11877;SDS011;5998;42.676;23.268;2023-04-03T08:21:42;12.10;;;6.43;;
11877;SDS011;5998;42.676;23.268;2023-04-03T08:24:10;9.17;;;6.47;;
11877;SDS011;5998;42.676;23.268;2023-04-03T08:26:37;9.43;;;7.37;;
11877;SDS011;5998;42.676;23.268;2023-04-03T08:29:04;14.63;;;8.00;;
11877;SDS011;5998;42.676;23.268;2023-04-03T08:31:31;12.03;;;7.03;;
11877;SDS011;5998;42.676;23.268;2023-04-03T08:33:58;10.93;;;7.20;;
11877;SDS011;5998;42.676;23.268;2023-04-03T08:36:26;8.57;;;6.70;;
11877;SDS011;5998;42.676;23.268;2023-04-03T08:38:54;11.30;;;7.23;;
11877;SDS011;5998;42.676;23.268;2023-04-03T08:41:27;12.87;;;7.47;;
11877;SDS011;5998;42.676;23.268;2023-04-03T08:44:02;8.80;;;6.00;;
11877;SDS011;5998;42.676;23.268;2023-04-03T08:46:38;9.07;;;5.90;;
11877;SDS011;5998;42.676;23.268;2023-04-03T08:49:21;11.13;;;7.00;;
11877;SDS011;5998;42.676;23.268;2023-04-03T08:51:52;10.70;;;5.97;;
11877;SDS011;5998;42.676;23.268;2023-04-03T08:54:26;12.93;;;6.97;;
11877;SDS011;5998;42.676;23.268;2023-04-03T08:56:57;14.10;;;7.83;;
11877;SDS011;5998;42.676;23.268;2023-04-03T08:59:26;15.23;;;8.10;;
11877;SDS011;5998;42.676;23.268;2023-04-03T09:01:56;14.00;;;7.90;;
11877;SDS011;5998;42.676;23.268;2023-04-03T09:04:27;15.07;;;9.13;;
11877;SDS011;5998;42.676;23.268;2023-04-03T09:06:58;13.40;;;8.80;;
11877;SDS011;5998;42.676;23.268;2023-04-03T09:09:31;10.97;;;9.60;;
11877;SDS011;5998;42.676;23.268;2023-04-03T09:12:10;17.90;;;10.13;;
11877;SDS011;5998;42.676;23.268;2023-04-03T09:14:44;14.80;;;10.33;;
11877;SDS011;5998;42.676;23.268;2023-04-03T09:17:21;21.77;;;11.80;;
11877;SDS011;5998;42.676;23.268;2023-04-03T09:19:56;15.20;;;11.33;;
11877;SDS011;5998;42.676;23.268;2023-04-03T09:22:28;22.97;;;12.97;;
11877;SDS011;5998;42.676;23.268;2023-04-03T09:24:59;16.30;;;11.00;;
11877;SDS011;5998;42.676;23.268;2023-04-03T09:27:34;18.93;;;12.07;;
11877;SDS011;5998;42.676;23.268;2023-04-03T09:30:00;17.27;;;10.63;;
11877;SDS011;5998;42.676;23.268;2023-04-03T09:32:29;19.10;;;10.53;;
11877;SDS011;5998;42.676;23.268;2023-04-03T09:34:58;12.90;;;9.77;;
11877;SDS011;5998;42.676;23.268;2023-04-03T09:37:36;15.00;;;9.87;;
11877;SDS011;5998;42.676;23.268;2023-04-03T09:40:05;14.07;;;9.67;;
11877;SDS011;5998;42.676;23.268;2023-04-03T09:42:55;9.77;;;7.87;;
11877;SDS011;5998;42.676;23.268;2023-04-03T09:45:25;12.63;;;8.03;;
11877;SDS011;5998;42.676;23.268;2023-04-03T09:48:04;7.87;;;6.30;;
11877;SDS011;5998;42.676;23.268;2023-04-03T09:50:32;7.73;;;6.33;;
11877;SDS011;5998;42.676;23.268;2023-04-03T09:53:04;7.37;;;5.00;;
11877;SDS011;5998;42.676;23.268;2023-04-03T09:55:33;6.37;;;5.43;;
11877;SDS011;5998;42.676;23.268;2023-04-03T09:58:22;9.70;;;5.87;;
11877;SDS011;5998;42.676;23.268;2023-04-03T10:00:55;10.23;;;6.13;;
11877;SDS011;5998;42.676;23.268;2023-04-03T10:03:24;10.33;;;4.87;;
11877;SDS011;5998;42.676;23.268;2023-04-03T10:05:54;7.40;;;4.50;;
11877;SDS011;5998;42.676;23.268;2023-04-03T10:08:24;9.67;;;5.40;;
11877;SDS011;5998;42.676;23.268;2023-04-03T10:11:06;6.17;;;4.20;;
11877;SDS011;5998;42.676;23.268;2023-04-03T10:13:50;12.53;;;5.33;;
11877;SDS011;5998;42.676;23.268;2023-04-03T10:16:20;5.20;;;3.90;;
11877;SDS011;5998;42.676;23.268;2023-04-03T10:18:53;7.57;;;4.37;;
11877;SDS011;5998;42.676;23.268;2023-04-03T10:21:31;8.07;;;4.50;;
11877;SDS011;5998;42.676;23.268;2023-04-03T10:24:09;17.40;;;5.23;;
11877;SDS011;5998;42.676;23.268;2023-04-03T10:26:41;11.33;;;4.77;;
11877;SDS011;5998;42.676;23.268;2023-04-03T10:29:19;4.77;;;3.50;;
11877;SDS011;5998;42.676;23.268;2023-04-03T10:31:56;4.20;;;2.93;;
11877;SDS011;5998;42.676;23.268;2023-04-03T10:34:29;3.93;;;3.23;;
11877;SDS011;5998;42.676;23.268;2023-04-03T10:37:01;6.40;;;4.07;;
11877;SDS011;5998;42.676;23.268;2023-04-03T10:39:38;12.93;;;4.90;;
11877;SDS011;5998;42.676;23.268;2023-04-03T10:42:13;4.90;;;3.63;;
11877;SDS011;5998;42.676;23.268;2023-04-03T10:44:52;6.30;;;3.70;;
11877;SDS011;5998;42.676;23.268;2023-04-03T10:47:28;11.67;;;4.03;;
11877;SDS011;5998;42.676;23.268;2023-04-03T10:50:02;3.87;;;3.03;;
11877;SDS011;5998;42.676;23.268;2023-04-03T10:52:47;8.10;;;3.80;;
11877;SDS011;5998;42.676;23.268;2023-04-03T10:55:23;6.13;;;3.70;;
11877;SDS011;5998;42.676;23.268;2023-04-03T10:57:57;7.17;;;3.70;;
11877;SDS011;5998;42.676;23.268;2023-04-03T11:00:29;4.87;;;3.00;;
11877;SDS011;5998;42.676;23.268;2023-04-03T11:03:03;5.87;;;2.83;;
11877;SDS011;5998;42.676;23.268;2023-04-03T11:05:34;8.00;;;2.90;;
11877;SDS011;5998;42.676;23.268;2023-04-03T11:08:07;6.17;;;3.43;;
11877;SDS011;5998;42.676;23.268;2023-04-03T11:10:42;2.83;;;2.57;;
11877;SDS011;5998;42.676;23.268;2023-04-03T11:13:11;5.73;;;2.40;;
11877;SDS011;5998;42.676;23.268;2023-04-03T11:15:43;4.67;;;2.20;;
11877;SDS011;5998;42.676;23.268;2023-04-03T11:18:12;2.73;;;2.10;;
11877;SDS011;5998;42.676;23.268;2023-04-03T11:20:42;3.27;;;2.37;;
11877;SDS011;5998;42.676;23.268;2023-04-03T11:23:15;3.33;;;2.30;;
11877;SDS011;5998;42.676;23.268;2023-04-03T11:25:48;3.90;;;2.20;;
11877;SDS011;5998;42.676;23.268;2023-04-03T11:28:18;2.97;;;2.20;;
11877;SDS011;5998;42.676;23.268;2023-04-03T11:30:47;5.33;;;2.90;;
11877;SDS011;5998;42.676;23.268;2023-04-03T11:33:21;3.37;;;2.40;;
11877;SDS011;5998;42.676;23.268;2023-04-03T11:35:57;3.20;;;2.90;;
11877;SDS011;5998;42.676;23.268;2023-04-03T11:38:30;2.90;;;2.60;;
11877;SDS011;5998;42.676;23.268;2023-04-03T11:41:01;3.73;;;2.83;;
11877;SDS011;5998;42.676;23.268;2023-04-03T11:43:29;4.17;;;2.80;;
11877;SDS011;5998;42.676;23.268;2023-04-03T11:45:58;3.13;;;2.83;;
11877;SDS011;5998;42.676;23.268;2023-04-03T12:09:27;5.50;;;3.80;;
11877;SDS011;5998;42.676;23.268;2023-04-03T12:11:58;3.63;;;2.97;;
11877;SDS011;5998;42.676;23.268;2023-04-03T12:14:28;3.57;;;2.80;;
11877;SDS011;5998;42.676;23.268;2023-04-03T12:16:57;3.90;;;3.40;;
11877;SDS011;5998;42.676;23.268;2023-04-03T12:19:30;5.13;;;3.37;;
11877;SDS011;5998;42.676;23.268;2023-04-03T12:22:12;3.40;;;3.10;;
11877;SDS011;5998;42.676;23.268;2023-04-03T12:24:41;3.93;;;3.03;;
11877;SDS011;5998;42.676;23.268;2023-04-03T12:27:15;5.37;;;3.47;;
11877;SDS011;5998;42.676;23.268;2023-04-03T12:29:51;4.57;;;3.97;;
11877;SDS011;5998;42.676;23.268;2023-04-03T12:32:37;5.37;;;4.50;;
11877;SDS011;5998;42.676;23.268;2023-04-03T12:35:17;3.40;;;3.10;;
11877;SDS011;5998;42.676;23.268;2023-04-03T12:40:57;4.73;;;3.70;;
11877;SDS011;5998;42.676;23.268;2023-04-03T12:43:43;4.73;;;4.00;;
11877;SDS011;5998;42.676;23.268;2023-04-03T12:46:21;3.93;;;3.53;;
11877;SDS011;5998;42.676;23.268;2023-04-03T12:48:51;4.77;;;3.67;;
11877;SDS011;5998;42.676;23.268;2023-04-03T12:51:21;6.50;;;3.83;;
11877;SDS011;5998;42.676;23.268;2023-04-03T12:53:56;6.33;;;3.77;;
11877;SDS011;5998;42.676;23.268;2023-04-03T12:56:28;4.53;;;4.10;;
11877;SDS011;5998;42.676;23.268;2023-04-03T12:59:12;4.43;;;3.97;;
11877;SDS011;5998;42.676;23.268;2023-04-03T13:01:41;4.33;;;4.03;;
11877;SDS011;5998;42.676;23.268;2023-04-03T13:04:10;7.60;;;4.23;;
11877;SDS011;5998;42.676;23.268;2023-04-03T13:06:39;7.23;;;4.13;;
11877;SDS011;5998;42.676;23.268;2023-04-03T13:09:17;9.93;;;4.77;;
11877;SDS011;5998;42.676;23.268;2023-04-03T13:11:47;8.13;;;4.20;;
11877;SDS011;5998;42.676;23.268;2023-04-03T13:14:17;8.63;;;4.87;;
11877;SDS011;5998;42.676;23.268;2023-04-03T13:16:52;7.93;;;4.97;;
11877;SDS011;5998;42.676;23.268;2023-04-03T13:19:22;9.60;;;5.33;;
11877;SDS011;5998;42.676;23.268;2023-04-03T13:21:51;7.80;;;5.13;;
11877;SDS011;5998;42.676;23.268;2023-04-03T13:24:24;6.20;;;5.10;;
11877;SDS011;5998;42.676;23.268;2023-04-03T13:26:51;8.53;;;5.40;;
11877;SDS011;5998;42.676;23.268;2023-04-03T13:29:21;9.23;;;6.40;;
11877;SDS011;5998;42.676;23.268;2023-04-03T13:31:52;8.77;;;6.03;;
11877;SDS011;5998;42.676;23.268;2023-04-03T13:34:22;9.23;;;5.87;;
11877;SDS011;5998;42.676;23.268;2023-04-03T13:36:56;8.63;;;5.90;;
11877;SDS011;5998;42.676;23.268;2023-04-03T13:39:25;11.07;;;6.93;;
11877;SDS011;5998;42.676;23.268;2023-04-03T13:41:54;5.77;;;4.97;;
11877;SDS011;5998;42.676;23.268;2023-04-03T13:44:27;26.57;;;12.63;;
11877;SDS011;5998;42.676;23.268;2023-04-03T13:46:58;10.87;;;6.20;;
11877;SDS011;5998;42.676;23.268;2023-04-03T13:49:31;9.40;;;5.40;;
11877;SDS011;5998;42.676;23.268;2023-04-03T13:52:03;6.43;;;5.77;;
11877;SDS011;5998;42.676;23.268;2023-04-03T13:54:48;6.97;;;6.27;;
11877;SDS011;5998;42.676;23.268;2023-04-03T13:57:21;7.00;;;6.10;;
11877;SDS011;5998;42.676;23.268;2023-04-03T13:59:48;5.87;;;5.27;;
11877;SDS011;5998;42.676;23.268;2023-04-03T14:02:16;5.97;;;5.47;;
11877;SDS011;5998;42.676;23.268;2023-04-03T14:04:48;6.90;;;6.23;;
11877;SDS011;5998;42.676;23.268;2023-04-03T14:07:23;10.23;;;6.27;;
11877;SDS011;5998;42.676;23.268;2023-04-03T14:09:50;6.67;;;5.80;;
11877;SDS011;5998;42.676;23.268;2023-04-03T14:12:18;7.20;;;5.77;;
11877;SDS011;5998;42.676;23.268;2023-04-03T14:14:51;6.00;;;4.77;;
11877;SDS011;5998;42.676;23.268;2023-04-03T14:17:19;6.00;;;5.40;;
11877;SDS011;5998;42.676;23.268;2023-04-03T14:19:49;7.43;;;4.40;;
11877;SDS011;5998;42.676;23.268;2023-04-03T14:22:17;6.13;;;5.10;;
11877;SDS011;5998;42.676;23.268;2023-04-03T14:24:46;6.00;;;5.40;;
11877;SDS011;5998;42.676;23.268;2023-04-03T14:27:15;5.70;;;5.17;;
11877;SDS011;5998;42.676;23.268;2023-04-03T14:29:45;5.23;;;4.73;;
11877;SDS011;5998;42.676;23.268;2023-04-03T14:32:12;5.90;;;5.27;;
11877;SDS011;5998;42.676;23.268;2023-04-03T14:34:41;5.50;;;5.00;;
11877;SDS011;5998;42.676;23.268;2023-04-03T14:37:11;7.70;;;6.17;;
11877;SDS011;5998;42.676;23.268;2023-04-03T14:39:39;6.27;;;5.03;;
11877;SDS011;5998;42.676;23.268;2023-04-03T14:42:10;6.90;;;6.20;;
11877;SDS011;5998;42.676;23.268;2023-04-03T14:44:38;6.17;;;4.97;;
11877;SDS011;5998;42.676;23.268;2023-04-03T14:47:08;7.87;;;5.23;;
11877;SDS011;5998;42.676;23.268;2023-04-03T14:49:36;6.60;;;5.37;;
11877;SDS011;5998;42.676;23.268;2023-04-03T14:52:03;4.50;;;4.20;;
11877;SDS011;5998;42.676;23.268;2023-04-03T14:54:32;3.80;;;3.40;;
11877;SDS011;5998;42.676;23.268;2023-04-03T14:57:01;4.00;;;3.70;;
11877;SDS011;5998;42.676;23.268;2023-04-03T14:59:29;3.97;;;3.60;;
11877;SDS011;5998;42.676;23.268;2023-04-03T15:01:57;4.70;;;3.63;;
11877;SDS011;5998;42.676;23.268;2023-04-03T15:04:24;4.00;;;3.70;;
11877;SDS011;5998;42.676;23.268;2023-04-03T15:06:51;4.43;;;4.03;;
11877;SDS011;5998;42.676;23.268;2023-04-03T15:09:19;4.90;;;4.47;;
11877;SDS011;5998;42.676;23.268;2023-04-03T15:11:50;4.47;;;4.07;;
11877;SDS011;5998;42.676;23.268;2023-04-03T15:14:18;4.27;;;3.87;;
11877;SDS011;5998;42.676;23.268;2023-04-03T15:16:45;4.27;;;3.87;;
11877;SDS011;5998;42.676;23.268;2023-04-03T15:19:12;4.43;;;4.03;;
11877;SDS011;5998;42.676;23.268;2023-04-03T15:21:39;5.43;;;4.47;;